createdAt,value
2019-05-11T00:01:39.509Z,12.60
2019-05-11T00:23:52.403Z,12.62
2019-05-11T00:26:52.408Z,12.68
2019-05-11T00:27:52.443Z,12.64
2019-05-11T00:29:52.498Z,12.60
2019-05-11T00:30:54.146Z,12.65
2019-05-11T00:39:28.607Z,12.70
2019-05-11T00:40:28.633Z,12.77
2019-05-11T00:42:28.694Z,12.77
2019-05-11T00:46:29.019Z,12.79
2019-05-11T01:04:40.380Z,12.83
2019-05-11T01:30:29.561Z,13.46
2019-05-11T01:31:29.587Z,13.44
2019-05-11T01:35:29.713Z,13.23
2019-05-11T03:46:31.637Z,15.60
2019-05-11T03:47:30.950Z,15.57
2019-05-11T03:48:30.987Z,15.68
2019-05-11T03:51:31.487Z,15.57
2019-05-11T03:52:31.317Z,15.64
2019-05-11T03:56:31.240Z,15.60
2019-05-11T03:58:31.514Z,15.56
2019-05-11T05:24:22.306Z,16.05
2019-05-11T05:25:22.313Z,16.12
2019-05-11T05:26:22.344Z,16.23
2019-05-11T05:27:22.402Z,16.25
2019-05-11T05:28:22.430Z,16.23
2019-05-11T05:29:22.464Z,16.14
2019-05-11T05:30:23.896Z,16.34
2019-05-11T05:31:22.504Z,16.25
2019-05-11T05:32:22.537Z,16.33
2019-05-11T05:33:22.568Z,16.31
2019-05-11T05:34:22.600Z,16.25
2019-05-11T05:35:22.632Z,16.28
2019-05-11T05:36:22.666Z,16.24
2019-05-11T05:37:22.699Z,16.39
2019-05-11T05:38:22.730Z,16.38
2019-05-11T05:39:22.762Z,16.30
2019-05-11T05:40:22.795Z,16.15
2019-05-11T05:41:22.827Z,16.25
2019-05-11T05:42:22.858Z,16.14
2019-05-11T05:43:27.520Z,16.21
2019-05-11T05:44:22.924Z,16.23
2019-05-11T05:45:22.956Z,16.23
2019-05-11T05:46:22.988Z,16.23
2019-05-11T05:47:23.042Z,16.33
2019-05-11T05:48:23.055Z,16.23
2019-05-11T05:49:23.085Z,16.24
2019-05-11T05:50:23.117Z,16.17
2019-05-11T05:51:23.150Z,16.20
2019-05-11T05:52:23.183Z,16.30
2019-05-11T05:53:23.215Z,16.27
2019-05-11T05:54:23.246Z,16.33
2019-05-11T05:55:23.279Z,16.35
2019-05-11T05:56:23.311Z,16.34
2019-05-11T05:57:23.346Z,16.45
2019-05-11T05:58:23.379Z,16.49
2019-05-11T05:59:23.416Z,16.49
2019-05-11T06:00:23.443Z,16.45
2019-05-11T06:01:23.474Z,16.43
2019-05-11T06:02:23.524Z,16.53
2019-05-11T06:03:23.539Z,16.57
2019-05-11T06:04:23.572Z,16.60
2019-05-11T06:05:23.830Z,16.53
2019-05-11T06:06:23.666Z,16.58
2019-05-11T06:07:23.691Z,16.63
2019-05-11T06:08:24.234Z,16.63
2019-05-11T06:09:24.745Z,16.68
2019-05-11T06:10:23.768Z,16.73
2019-05-11T06:11:23.804Z,16.67
2019-05-11T06:12:23.835Z,16.63
2019-05-11T06:13:24.202Z,16.63
2019-05-11T06:14:23.898Z,16.66
2019-05-11T06:15:23.933Z,16.73
2019-05-11T06:16:23.969Z,17.00
2019-05-11T06:17:23.999Z,17.11
2019-05-11T06:18:24.030Z,17.23
2019-05-11T06:19:24.088Z,17.38
2019-05-11T06:20:24.097Z,17.56
2019-05-11T06:21:24.128Z,17.72
2019-05-11T06:22:24.175Z,17.82
2019-05-11T06:23:24.202Z,17.87
2019-05-11T06:24:24.633Z,17.97
2019-05-11T06:25:24.486Z,17.82
2019-05-11T06:26:24.526Z,17.87
2019-05-11T06:27:28.836Z,17.96
2019-05-11T06:28:24.360Z,18.10
2019-05-11T06:29:24.394Z,18.05
2019-05-11T06:30:24.428Z,18.08
2019-05-11T06:31:24.470Z,18.05
2019-05-11T06:32:24.504Z,18.17
2019-05-11T06:33:24.571Z,18.35
2019-05-11T06:34:24.561Z,18.33
2019-05-11T06:35:24.597Z,18.47
2019-05-11T06:36:24.629Z,18.44
2019-05-11T06:37:24.661Z,18.51
2019-05-11T06:38:24.701Z,18.60
2019-05-11T06:39:24.734Z,18.48
2019-05-11T06:40:28.403Z,18.27
2019-05-11T06:41:24.798Z,18.21
2019-05-11T06:42:24.834Z,18.08
2019-05-11T06:43:24.866Z,17.95
2019-05-11T06:44:24.900Z,17.86
2019-05-11T06:45:24.934Z,17.81
2019-05-11T06:46:24.968Z,17.90
2019-05-11T06:47:25.002Z,17.84
2019-05-11T06:48:25.037Z,17.79
2019-05-11T06:49:25.070Z,17.87
2019-05-11T06:50:25.103Z,17.96
2019-05-11T06:51:25.137Z,17.99
2019-05-11T06:52:25.173Z,18.14
2019-05-11T06:53:25.208Z,18.21
2019-05-11T06:54:25.240Z,18.03
2019-05-11T06:55:25.274Z,18.30
2019-05-11T06:56:25.309Z,18.30
2019-05-11T06:57:25.341Z,18.48
2019-05-11T06:58:25.378Z,18.67
2019-05-11T06:59:25.409Z,18.63
2019-05-11T07:00:25.445Z,18.81
2019-05-11T07:01:25.477Z,18.82
2019-05-11T07:02:25.511Z,18.70
2019-05-11T07:03:25.545Z,18.78
2019-05-11T07:04:25.581Z,18.67
2019-05-11T07:05:25.616Z,18.70
2019-05-11T07:06:29.792Z,18.65
2019-05-11T07:07:25.683Z,18.65
2019-05-11T07:08:25.718Z,18.45
2019-05-11T07:09:25.753Z,18.27
2019-05-11T07:10:25.788Z,18.33
2019-05-11T07:11:25.822Z,18.47
2019-05-11T07:12:27.718Z,18.36
2019-05-11T07:13:25.889Z,18.48
2019-05-11T07:14:25.925Z,18.54
2019-05-11T07:15:25.964Z,18.58
2019-05-11T07:16:25.995Z,18.42
2019-05-11T07:17:26.027Z,18.20
2019-05-11T07:18:26.070Z,17.96
2019-05-11T07:19:26.096Z,17.92
2019-05-11T07:20:26.131Z,17.93
2019-05-11T07:21:26.165Z,17.89
2019-05-11T07:22:26.200Z,17.84
2019-05-11T07:23:26.235Z,17.75
2019-05-11T07:24:26.271Z,17.68
2019-05-11T07:25:26.312Z,17.56
2019-05-11T07:26:26.337Z,17.52
2019-05-11T07:27:26.372Z,17.46
2019-05-11T07:28:26.406Z,17.38
2019-05-11T07:29:26.441Z,17.46
2019-05-11T07:30:26.474Z,17.59
2019-05-11T07:31:26.508Z,17.66
2019-05-11T07:32:29.185Z,17.74
2019-05-11T07:33:28.584Z,17.86
2019-05-11T07:34:27.800Z,17.71
2019-05-11T07:35:27.955Z,17.74
2019-05-11T07:37:28.003Z,17.92
2019-05-11T07:38:27.813Z,17.89
2019-05-11T07:39:27.980Z,17.63
2019-05-11T07:40:27.910Z,17.55
2019-05-11T07:41:28.188Z,17.46
2019-05-11T07:42:28.650Z,17.52
2019-05-11T07:43:28.782Z,17.37
2019-05-11T07:44:35.918Z,17.44
2019-05-11T07:45:28.301Z,17.38
2019-05-11T07:46:28.824Z,17.37
2019-05-11T07:47:27.802Z,17.54
2019-05-11T07:48:27.965Z,17.37
2019-05-11T07:49:29.051Z,17.55
2019-05-11T07:50:28.407Z,17.54
2019-05-11T07:51:28.693Z,17.51
2019-05-11T07:52:28.747Z,17.38
2019-05-11T07:53:27.893Z,17.52
2019-05-11T07:54:28.097Z,17.51
2019-05-11T07:55:28.146Z,17.56
2019-05-11T07:56:28.538Z,17.58
2019-05-11T07:57:28.374Z,17.84
2019-05-11T07:58:28.488Z,17.74
2019-05-11T07:59:28.985Z,17.86
2019-05-11T08:00:28.146Z,18.11
2019-05-11T08:01:28.334Z,18.26
2019-05-11T08:02:28.517Z,18.51
2019-05-11T08:03:28.369Z,18.45
2019-05-11T08:04:28.740Z,18.66
2019-05-11T08:05:28.398Z,18.88
2019-05-11T08:06:28.570Z,19.06
2019-05-11T08:07:28.548Z,19.19
2019-05-11T08:08:28.380Z,19.26
2019-05-11T08:09:28.055Z,19.29
2019-05-11T08:10:28.267Z,19.47
2019-05-11T08:11:31.195Z,19.48
2019-05-11T08:12:28.600Z,19.41
2019-05-11T08:13:28.342Z,19.31
2019-05-11T08:14:28.741Z,19.29
2019-05-11T08:15:28.493Z,19.29
2019-05-11T08:16:28.848Z,19.14
2019-05-11T08:17:28.696Z,19.02
2019-05-11T08:18:28.407Z,19.13
2019-05-11T08:19:28.434Z,19.11
2019-05-11T08:20:28.245Z,19.26
2019-05-11T08:21:28.596Z,19.47
2019-05-11T08:22:28.586Z,19.66
2019-05-11T08:23:28.648Z,19.61
2019-05-11T08:24:28.586Z,19.77
2019-05-11T08:25:28.854Z,19.77
2019-05-11T08:26:28.554Z,19.84
2019-05-11T08:27:28.677Z,19.78
2019-05-11T08:28:28.833Z,19.78
2019-05-11T08:29:28.528Z,19.76
2019-05-11T08:30:28.542Z,19.71
2019-05-11T08:31:28.577Z,19.78
2019-05-11T08:32:28.889Z,19.78
2019-05-11T08:33:28.670Z,19.74
2019-05-11T08:34:28.767Z,19.94
2019-05-11T08:35:31.347Z,19.98
2019-05-11T08:36:29.172Z,19.96
2019-05-11T08:37:31.414Z,19.95
2019-05-11T08:38:28.826Z,19.95
2019-05-11T08:39:29.035Z,19.95
2019-05-11T08:40:29.078Z,19.76
2019-05-11T08:41:28.935Z,19.84
2019-05-11T08:42:29.135Z,19.77
2019-05-11T08:43:29.006Z,20.02
2019-05-11T08:44:29.064Z,20.05
2019-05-11T08:45:29.079Z,20.33
2019-05-11T08:46:29.114Z,20.67
2019-05-11T08:47:29.155Z,20.74
2019-05-11T08:48:29.186Z,20.79
2019-05-11T08:49:29.228Z,20.98
2019-05-11T08:50:29.259Z,21.17
2019-05-11T08:51:29.300Z,21.17
2019-05-11T08:52:29.333Z,21.28
2019-05-11T08:53:29.368Z,21.38
2019-05-11T08:54:29.404Z,21.74
2019-05-11T08:55:29.442Z,22.07
2019-05-11T08:56:29.500Z,22.09
2019-05-11T08:57:29.536Z,21.88
2019-05-11T08:58:29.552Z,21.82
2019-05-11T08:59:29.588Z,21.98
2019-05-11T09:00:29.625Z,21.96
2019-05-11T09:01:31.322Z,21.99
2019-05-11T09:02:29.699Z,22.18
2019-05-11T09:03:29.740Z,22.25
2019-05-11T09:04:29.774Z,22.22
2019-05-11T09:05:29.812Z,22.07
2019-05-11T09:06:29.850Z,21.86
2019-05-11T09:07:29.886Z,22.00
2019-05-11T09:08:29.924Z,22.06
2019-05-11T09:09:29.960Z,21.91
2019-05-11T09:10:29.998Z,22.03
2019-05-11T09:11:30.063Z,21.74
2019-05-11T09:13:30.112Z,21.56
2019-05-11T09:14:30.150Z,21.17
2019-05-11T09:15:36.949Z,20.89
2019-05-11T09:16:30.226Z,20.92
2019-05-11T09:17:30.262Z,20.91
2019-05-11T09:18:30.299Z,20.89
2019-05-11T09:19:30.340Z,20.74
2019-05-11T09:20:30.398Z,20.94
2019-05-11T09:21:30.413Z,21.03
2019-05-11T09:22:30.450Z,21.10
2019-05-11T09:24:30.525Z,20.85
2019-05-11T09:25:30.890Z,20.92
2019-05-11T09:26:31.206Z,21.22
2019-05-11T09:27:30.636Z,21.29
2019-05-11T09:28:30.699Z,21.59
2019-05-11T09:29:30.939Z,21.64
2019-05-11T09:30:30.749Z,21.86
2019-05-11T09:31:30.785Z,21.43
2019-05-11T09:32:31.859Z,21.68
2019-05-11T09:33:30.882Z,21.79
2019-05-11T09:34:31.128Z,22.00
2019-05-11T09:35:30.937Z,22.15
2019-05-11T09:36:31.005Z,22.10
2019-05-11T09:37:31.010Z,21.99
2019-05-11T09:38:31.048Z,22.21
2019-05-11T09:39:31.086Z,22.17
2019-05-11T09:40:31.124Z,22.21
2019-05-11T09:41:31.368Z,22.12
2019-05-11T09:42:31.200Z,22.12
2019-05-11T09:43:31.237Z,22.03
2019-05-11T09:44:31.275Z,21.71
2019-05-11T09:45:44.664Z,21.37
2019-05-11T09:46:31.352Z,21.53
2019-05-11T09:47:31.390Z,21.58
2019-05-11T09:48:31.428Z,21.29
2019-05-11T09:49:44.002Z,21.59
2019-05-11T09:50:31.504Z,21.74
2019-05-11T09:51:31.541Z,21.77
2019-05-11T09:52:32.532Z,21.27
2019-05-11T09:53:31.617Z,20.91
2019-05-11T09:54:31.655Z,21.22
2019-05-11T09:55:31.698Z,21.28
2019-05-11T09:56:31.730Z,21.16
2019-05-11T09:57:31.767Z,21.17
2019-05-11T09:58:31.807Z,21.37
2019-05-11T09:59:31.845Z,21.28
2019-05-11T10:00:31.906Z,21.71
2019-05-11T10:01:31.921Z,21.68
2019-05-11T10:02:31.962Z,21.88
2019-05-11T10:03:31.994Z,21.64
2019-05-11T10:04:32.033Z,22.21
2019-05-11T10:05:32.091Z,22.70
2019-05-11T10:06:32.129Z,23.01
2019-05-11T10:07:32.596Z,23.38
2019-05-11T10:08:32.184Z,23.42
2019-05-11T10:09:34.884Z,23.00
2019-05-11T10:10:32.260Z,23.75
2019-05-11T10:11:32.298Z,23.68
2019-05-11T10:12:32.338Z,22.82
2019-05-11T10:13:32.376Z,23.01
2019-05-11T10:14:32.414Z,23.72
2019-05-11T10:15:32.459Z,23.39
2019-05-11T10:16:32.494Z,23.01
2019-05-11T10:17:32.532Z,23.91
2019-05-11T10:18:32.571Z,23.38
2019-05-11T10:19:32.612Z,24.16
2019-05-11T10:20:36.285Z,25.03
2019-05-11T10:21:32.690Z,25.85
2019-05-11T10:22:32.731Z,26.99
2019-05-11T10:23:32.773Z,27.13
2019-05-11T10:24:32.814Z,27.55
2019-05-11T10:25:32.856Z,27.32
2019-05-11T10:26:33.908Z,27.31
2019-05-11T10:27:32.940Z,27.12
2019-05-11T10:28:32.985Z,25.09
2019-05-11T10:29:34.004Z,24.16
2019-05-11T10:30:33.294Z,23.83
2019-05-11T10:32:33.156Z,23.68
2019-05-11T10:33:33.199Z,24.15
2019-05-11T10:34:33.241Z,24.55
2019-05-11T10:35:33.283Z,24.21
2019-05-11T10:36:33.326Z,25.51
2019-05-11T10:37:33.370Z,26.92
2019-05-11T10:38:33.436Z,26.17
2019-05-11T10:39:33.456Z,26.85
2019-05-11T10:40:33.501Z,26.94
2019-05-11T10:41:33.543Z,25.82
2019-05-11T10:42:33.587Z,26.73
2019-05-11T10:43:33.632Z,26.92
2019-05-11T10:44:33.677Z,27.32
2019-05-11T10:45:33.722Z,27.49
2019-05-11T10:46:33.765Z,27.28
2019-05-11T10:47:33.816Z,27.81
2019-05-11T10:48:33.855Z,28.17
2019-05-11T10:49:34.507Z,27.55
2019-05-11T10:50:33.947Z,27.66
2019-05-11T10:51:33.996Z,26.85
2019-05-11T10:52:34.039Z,26.88
2019-05-11T10:53:34.086Z,27.29
2019-05-11T10:54:34.134Z,26.73
2019-05-11T10:55:34.178Z,26.26
2019-05-11T10:56:34.225Z,26.89
2019-05-11T10:57:34.274Z,27.88
2019-05-11T10:58:34.317Z,27.67
2019-05-11T10:59:34.381Z,28.29
2019-05-11T11:00:34.412Z,28.36
2019-05-11T11:01:34.459Z,27.57
2019-05-11T11:02:34.507Z,27.88
2019-05-11T11:03:34.555Z,28.62
2019-05-11T11:04:34.601Z,28.49
2019-05-11T11:05:34.649Z,27.57
2019-05-11T11:06:34.747Z,27.93
2019-05-11T11:07:55.365Z,28.22
2019-05-11T11:08:34.792Z,28.71
2019-05-11T11:09:34.839Z,28.12
2019-05-11T11:10:34.888Z,27.74
2019-05-11T11:11:34.935Z,27.41
2019-05-11T11:12:34.982Z,26.60
2019-05-11T11:13:35.029Z,26.32
2019-05-11T11:14:37.534Z,25.13
2019-05-11T11:15:35.124Z,24.83
2019-05-11T11:16:39.643Z,24.84
2019-05-11T11:18:35.261Z,25.35
2019-05-11T11:19:35.305Z,25.14
2019-05-11T11:20:35.351Z,24.90
2019-05-11T11:21:35.395Z,24.87
2019-05-11T11:22:40.176Z,24.39
2019-05-11T11:23:35.482Z,24.69
2019-05-11T11:24:37.467Z,25.75
2019-05-11T11:25:37.498Z,25.57
2019-05-11T11:26:37.794Z,25.23
2019-05-11T11:27:37.943Z,25.46
2019-05-11T11:28:35.699Z,25.36
2019-05-11T11:29:35.745Z,24.71
2019-05-11T11:30:37.893Z,24.73
2019-05-11T11:31:37.957Z,24.52
2019-05-11T11:32:38.134Z,24.47
2019-05-11T11:33:38.084Z,23.73
2019-05-11T11:34:38.253Z,23.76
2019-05-11T11:35:38.335Z,23.73
2019-05-11T11:36:37.581Z,23.88
2019-05-11T11:37:38.467Z,23.48
2019-05-11T11:38:37.582Z,23.01
2019-05-11T11:39:38.673Z,22.64
2019-05-11T11:40:38.524Z,22.67
2019-05-11T11:41:37.916Z,22.72
2019-05-11T11:42:37.759Z,22.65
2019-05-11T11:43:37.741Z,22.77
2019-05-11T11:44:38.001Z,22.85
2019-05-11T11:45:38.112Z,22.64
2019-05-11T11:46:50.368Z,22.57
2019-05-11T11:47:38.389Z,22.52
2019-05-11T11:48:38.396Z,24.13
2019-05-11T11:49:38.334Z,25.40
2019-05-11T11:50:37.787Z,24.68
2019-05-11T11:51:37.854Z,23.57
2019-05-11T11:52:38.297Z,25.40
2019-05-11T11:53:38.337Z,26.40
2019-05-11T11:54:38.666Z,27.10
2019-05-11T11:55:38.857Z,25.75
2019-05-11T11:56:38.026Z,26.57
2019-05-11T11:57:38.047Z,27.06
2019-05-11T11:58:38.161Z,26.80
2019-05-11T11:59:38.586Z,26.92
2019-05-11T12:00:39.089Z,28.19
2019-05-11T12:01:38.492Z,28.48
2019-05-11T12:03:37.996Z,28.37
2019-05-11T12:04:38.812Z,28.43
2019-05-11T12:05:38.600Z,28.80
2019-05-11T12:07:38.614Z,28.74
2019-05-11T12:08:38.948Z,28.55
2019-05-11T12:09:37.891Z,28.48
2019-05-11T12:10:38.055Z,28.59
2019-05-11T12:11:38.115Z,29.09
2019-05-11T12:12:38.644Z,28.92
2019-05-11T12:13:38.417Z,28.96
2019-05-11T12:14:38.495Z,29.26
2019-05-11T12:15:38.707Z,28.78
2019-05-11T12:16:38.844Z,29.15
2019-05-11T12:17:37.801Z,29.53
2019-05-11T12:18:38.166Z,30.05
2019-05-11T12:19:38.293Z,29.08
2019-05-11T12:20:38.909Z,29.30
2019-05-11T12:21:38.130Z,27.97
2019-05-11T12:22:38.611Z,28.12
2019-05-11T12:23:38.384Z,27.00
2019-05-11T12:24:38.129Z,27.43
2019-05-11T12:25:40.481Z,26.06
2019-05-11T12:26:38.820Z,25.94
2019-05-11T12:27:38.609Z,26.35
2019-05-11T12:28:38.420Z,27.65
2019-05-11T12:29:38.663Z,29.02
2019-05-11T12:30:38.416Z,28.48
2019-05-11T12:31:38.461Z,29.31
2019-05-11T12:32:38.509Z,28.15
2019-05-11T12:33:38.714Z,29.45
2019-05-11T12:34:38.603Z,29.55
2019-05-11T12:35:38.652Z,30.13
2019-05-11T12:36:38.899Z,27.82
2019-05-11T12:37:39.353Z,26.17
2019-05-11T12:38:38.794Z,24.53
2019-05-11T12:39:38.847Z,23.79
2019-05-11T12:40:39.040Z,23.13
2019-05-11T12:41:38.934Z,22.61
2019-05-11T12:42:38.981Z,22.55
2019-05-11T12:44:39.071Z,22.30
2019-05-11T12:45:39.116Z,22.40
2019-05-11T12:46:39.623Z,22.94
2019-05-11T12:47:39.203Z,23.15
2019-05-11T12:48:39.247Z,24.30
2019-05-11T12:49:39.289Z,24.69
2019-05-11T12:50:39.334Z,25.61
2019-05-11T12:51:39.375Z,26.33
2019-05-11T12:52:39.418Z,26.39
2019-05-11T12:53:39.464Z,25.65
2019-05-11T12:54:39.505Z,26.13
2019-05-11T12:55:39.547Z,27.63
2019-05-11T12:56:39.590Z,29.06
2019-05-11T12:57:39.633Z,27.87
2019-05-11T12:58:39.710Z,27.97
2019-05-11T12:59:39.722Z,28.93
2019-05-11T13:00:41.284Z,29.21
2019-05-11T13:01:39.808Z,29.27
2019-05-11T13:02:39.862Z,29.28
2019-05-11T13:03:39.897Z,30.13
2019-05-11T13:04:39.942Z,29.05
2019-05-11T13:05:40.009Z,29.11
2019-05-11T13:06:40.033Z,29.09
2019-05-11T13:07:40.080Z,28.89
2019-05-11T13:08:40.126Z,28.61
2019-05-11T13:09:40.171Z,27.21
2019-05-11T13:10:40.223Z,25.76
2019-05-11T13:11:40.263Z,25.00
2019-05-11T13:12:40.310Z,25.46
2019-05-11T13:13:40.455Z,26.01
2019-05-11T13:14:40.405Z,27.74
2019-05-11T13:15:40.448Z,28.14
2019-05-11T13:16:40.503Z,26.70
2019-05-11T13:17:41.141Z,25.72
2019-05-11T13:18:40.583Z,24.18
2019-05-11T13:19:40.631Z,23.16
2019-05-11T13:20:40.696Z,22.75
2019-05-11T13:21:40.721Z,22.27
2019-05-11T13:22:40.763Z,21.67
2019-05-11T13:23:40.807Z,21.32
2019-05-11T13:24:41.287Z,20.91
2019-05-11T13:25:40.894Z,20.17
2019-05-11T13:26:40.936Z,19.91
2019-05-11T13:27:40.978Z,19.55
2019-05-11T13:28:41.021Z,18.90
2019-05-11T13:29:41.062Z,18.05
2019-05-11T13:30:41.103Z,17.19
2019-05-11T13:31:41.143Z,16.82
2019-05-11T13:32:41.183Z,16.42
2019-05-11T13:33:41.224Z,16.31
2019-05-11T13:34:41.262Z,16.25
2019-05-11T13:35:41.302Z,16.34
2019-05-11T13:36:41.340Z,16.48
2019-05-11T13:37:41.377Z,16.63
2019-05-11T13:38:41.415Z,16.81
2019-05-11T13:39:41.455Z,17.04
2019-05-11T13:40:41.493Z,17.23
2019-05-11T13:41:41.527Z,17.64
2019-05-11T13:42:41.565Z,18.29
2019-05-11T13:43:41.603Z,18.81
2019-05-11T13:44:41.641Z,19.54
2019-05-11T13:45:41.676Z,20.33
2019-05-11T13:46:41.722Z,20.70
2019-05-11T13:47:51.605Z,22.55
2019-05-11T13:48:41.789Z,23.84
2019-05-11T13:49:42.431Z,24.18
2019-05-11T13:50:41.864Z,24.57
2019-05-11T13:51:41.901Z,25.15
2019-05-11T13:52:41.941Z,25.32
2019-05-11T13:53:41.977Z,26.57
2019-05-11T13:54:42.017Z,28.03
2019-05-11T13:55:42.057Z,27.37
2019-05-11T13:56:42.096Z,28.37
2019-05-11T13:57:42.136Z,28.14
2019-05-11T13:58:42.176Z,27.21
2019-05-11T13:59:42.219Z,26.60
2019-05-11T14:00:42.259Z,25.36
2019-05-11T14:01:42.305Z,24.73
2019-05-11T14:02:42.351Z,23.93
2019-05-11T14:03:42.389Z,22.95
2019-05-11T14:04:42.427Z,22.98
2019-05-11T14:05:42.465Z,23.16
2019-05-11T14:06:42.505Z,23.48
2019-05-11T14:07:42.547Z,23.87
2019-05-11T14:08:42.588Z,24.31
2019-05-11T14:09:42.635Z,24.40
2019-05-11T14:10:42.671Z,23.80
2019-05-11T14:11:44.993Z,22.70
2019-05-11T14:12:42.752Z,22.88
2019-05-11T14:13:42.792Z,22.28
2019-05-11T14:14:42.833Z,20.72
2019-05-11T14:15:42.875Z,19.29
2019-05-11T14:16:42.915Z,19.18
2019-05-11T14:17:42.957Z,19.16
2019-05-11T14:18:42.996Z,19.10
2019-05-11T14:19:43.036Z,19.06
2019-05-11T14:20:43.083Z,18.95
2019-05-11T14:21:43.116Z,18.20
2019-05-11T14:22:47.796Z,18.36
2019-05-11T14:23:43.196Z,20.67
2019-05-11T14:24:43.235Z,22.20
2019-05-11T14:25:43.274Z,23.28
2019-05-11T14:26:43.313Z,22.97
2019-05-11T14:27:43.354Z,22.61
2019-05-11T14:28:43.393Z,21.09
2019-05-11T14:29:43.433Z,20.02
2019-05-11T14:30:43.473Z,19.44
2019-05-11T14:31:43.513Z,19.37
2019-05-11T14:32:43.554Z,18.44
2019-05-11T14:33:43.593Z,18.10
2019-05-11T14:34:43.632Z,17.96
2019-05-11T14:35:43.671Z,17.82
2019-05-11T14:36:43.712Z,17.84
2019-05-11T14:37:43.749Z,17.84
2019-05-11T14:38:43.791Z,17.54
2019-05-11T14:39:43.827Z,17.51
2019-05-11T14:40:43.866Z,17.48
2019-05-11T14:41:43.903Z,17.37
2019-05-11T14:42:43.941Z,17.33
2019-05-11T14:43:43.980Z,17.22
2019-05-11T14:44:44.020Z,17.06
2019-05-11T14:45:44.054Z,16.50
2019-05-11T14:46:44.091Z,16.31
2019-05-11T14:47:44.129Z,16.20
2019-05-11T14:48:44.166Z,16.23
2019-05-11T14:49:44.200Z,16.11
2019-05-11T14:50:44.238Z,16.11
2019-05-11T14:51:44.274Z,16.09
2019-05-11T14:52:44.311Z,15.89
2019-05-11T14:53:44.345Z,15.87
2019-05-11T14:55:44.417Z,15.59
2019-05-11T14:56:44.785Z,15.57
2019-05-11T14:57:44.487Z,15.41
2019-05-11T14:58:44.525Z,15.34
2019-05-11T14:59:44.581Z,15.35
2019-05-11T15:03:28.707Z,14.96
2019-05-11T15:04:28.690Z,15.03
2019-05-11T15:05:31.115Z,15.13
2019-05-11T15:06:31.356Z,15.23
2019-05-11T15:07:28.314Z,15.07
2019-05-11T15:08:28.646Z,15.10
2019-05-11T15:09:28.605Z,15.09
2019-05-11T15:10:27.876Z,14.99
2019-05-11T15:11:28.074Z,14.83
2019-05-11T15:12:28.717Z,14.80
2019-05-11T15:13:28.777Z,14.86
2019-05-11T15:14:28.860Z,14.69
2019-05-11T15:15:28.044Z,14.73
2019-05-11T15:16:27.937Z,14.57
2019-05-11T15:17:28.275Z,14.29
2019-05-11T15:18:37.906Z,14.18
2019-05-11T15:19:27.987Z,13.95
2019-05-11T15:20:28.716Z,14.02
2019-05-11T15:21:28.136Z,14.14
2019-05-11T15:22:28.687Z,14.18
2019-05-11T15:23:28.508Z,14.18
2019-05-11T15:24:28.765Z,14.20
2019-05-11T15:26:27.980Z,14.07
2019-05-11T15:27:28.911Z,13.99
2019-05-11T15:28:28.559Z,13.96
2019-05-11T15:29:28.784Z,14.03
2019-05-11T15:30:28.830Z,14.03
2019-05-11T15:31:28.145Z,14.07
2019-05-11T15:32:28.603Z,14.06
2019-05-11T15:33:28.208Z,14.15
2019-05-11T15:34:28.834Z,13.95
2019-05-11T15:35:28.656Z,13.96
2019-05-11T15:36:28.659Z,13.97
2019-05-11T15:37:28.556Z,14.03
2019-05-11T15:38:28.581Z,14.06
2019-05-11T15:39:28.922Z,13.97
2019-05-11T15:40:28.435Z,13.95
2019-05-11T15:41:28.468Z,14.04
2019-05-11T15:42:28.906Z,14.18
2019-05-11T15:43:28.556Z,14.24
2019-05-11T15:44:28.834Z,14.28
2019-05-11T15:45:29.535Z,14.35
2019-05-11T15:46:29.057Z,14.52
2019-05-11T15:47:30.629Z,14.36
2019-05-11T15:48:28.695Z,14.18
2019-05-11T15:49:28.726Z,14.32
2019-05-11T15:50:29.253Z,14.32
2019-05-11T15:51:29.233Z,14.28
2019-05-11T15:52:28.824Z,14.39
2019-05-11T15:53:28.858Z,14.50
2019-05-11T15:54:28.994Z,14.39
2019-05-11T15:55:28.920Z,14.40
2019-05-11T15:56:28.952Z,14.36
2019-05-11T15:57:28.985Z,14.28
2019-05-11T15:58:29.260Z,14.24
2019-05-11T15:59:30.512Z,14.09
2019-05-11T16:00:29.085Z,14.03
2019-05-11T16:01:29.114Z,14.02
2019-05-11T16:02:29.146Z,13.88
2019-05-11T16:21:53.342Z,13.28
2019-05-11T16:23:49.975Z,13.17
2019-05-11T16:24:50.009Z,13.20
2019-05-11T16:25:50.270Z,13.20
2019-05-11T16:27:50.331Z,13.22
2019-05-11T16:28:50.966Z,13.39
2019-05-11T16:29:50.188Z,13.36
2019-05-11T16:30:50.220Z,13.30
2019-05-11T16:31:50.258Z,13.30
2019-05-11T16:32:50.488Z,13.23
2019-05-11T16:36:50.408Z,13.08
2019-05-11T16:37:54.253Z,12.97
2019-05-11T16:38:50.679Z,12.89
2019-05-11T16:41:50.571Z,12.52
2019-05-11T16:42:51.207Z,12.60
2019-05-11T16:43:51.821Z,12.56
2019-05-11T16:44:51.066Z,12.62
2019-05-11T16:46:51.122Z,12.45
2019-05-11T16:47:50.956Z,12.24
2019-05-11T16:48:53.586Z,12.19
2019-05-11T16:49:51.021Z,12.07
2019-05-11T16:51:50.856Z,11.91
2019-05-11T16:52:51.116Z,11.90
2019-05-11T16:53:51.449Z,11.76
2019-05-11T16:54:50.974Z,11.90
2019-05-11T16:55:51.004Z,11.76
2019-05-11T16:56:51.746Z,11.76
2019-05-11T17:05:53.656Z,11.44
2019-05-11T17:06:53.685Z,11.40
2019-05-11T17:07:53.716Z,11.29
2019-05-11T17:08:53.746Z,11.36
2019-05-11T17:09:53.774Z,11.42
2019-05-11T17:10:53.804Z,11.33
2019-05-11T17:11:53.836Z,11.29
2019-05-11T17:12:53.865Z,11.36
2019-05-11T17:13:53.893Z,11.28
2019-05-11T17:14:53.922Z,11.37
2019-05-11T17:15:53.952Z,11.33
2019-05-11T17:16:53.987Z,11.19
2019-05-11T17:17:54.011Z,11.09
2019-05-11T17:18:54.041Z,11.17
2019-05-11T17:19:54.071Z,11.19
2019-05-11T17:20:54.099Z,11.21
2019-05-11T17:21:54.128Z,11.10
2019-05-11T17:22:54.180Z,11.02
2019-05-11T17:23:54.189Z,10.92
2019-05-11T17:24:54.224Z,10.99
2019-05-11T17:25:54.246Z,10.94
2019-05-11T17:26:54.275Z,10.79
2019-05-11T17:27:54.306Z,10.91
2019-05-11T17:28:54.335Z,10.94
2019-05-11T17:29:54.363Z,10.91
2019-05-11T17:30:54.393Z,10.86
2019-05-11T17:31:54.422Z,10.88
2019-05-11T17:32:54.452Z,10.88
2019-05-11T17:33:54.481Z,10.94
2019-05-11T17:34:54.510Z,10.91
2019-05-11T17:35:54.539Z,11.04
2019-05-11T17:36:57.142Z,11.02
2019-05-11T17:37:54.597Z,10.86
2019-05-11T17:38:54.626Z,10.84
2019-05-11T17:39:54.656Z,10.79
2019-05-11T17:40:54.687Z,10.88
2019-05-11T17:41:54.715Z,10.82
2019-05-11T17:42:54.743Z,10.71
2019-05-11T17:43:54.772Z,10.73
2019-05-11T17:44:54.802Z,10.76
2019-05-11T17:45:54.830Z,10.71
2019-05-11T17:46:54.859Z,10.76
2019-05-11T17:47:54.888Z,10.86
2019-05-11T17:48:54.919Z,10.79
2019-05-11T17:49:59.510Z,10.89
2019-05-11T17:50:54.976Z,10.76
2019-05-11T17:51:55.006Z,10.82
2019-05-11T17:52:55.034Z,10.78
2019-05-11T17:53:55.062Z,10.74
2019-05-11T17:54:55.237Z,10.86
2019-05-11T17:55:57.792Z,10.81
2019-05-11T17:56:57.686Z,10.91
2019-05-11T17:57:55.212Z,10.84
2019-05-11T17:58:55.209Z,10.82
2019-05-11T17:59:55.240Z,10.82
2019-05-11T18:00:55.268Z,10.74
2019-05-11T18:01:55.295Z,10.76
2019-05-11T18:02:55.324Z,10.82
2019-05-11T18:03:55.354Z,10.81
2019-05-11T18:04:58.288Z,10.70
2019-05-11T18:05:55.414Z,10.78
2019-05-11T18:06:55.441Z,10.71
2019-05-11T18:07:55.470Z,10.71
2019-05-11T18:08:55.499Z,10.78
2019-05-11T18:09:55.528Z,10.78
2019-05-11T18:10:55.558Z,10.74
2019-05-11T18:11:55.586Z,10.76
2019-05-11T18:12:57.715Z,10.78
2019-05-11T18:13:55.643Z,10.70
2019-05-11T18:14:55.674Z,10.67
2019-05-11T18:15:57.801Z,10.74
2019-05-11T18:16:55.732Z,10.73
2019-05-11T18:17:58.576Z,10.74
2019-05-11T18:18:55.812Z,10.76
2019-05-11T18:19:58.064Z,10.64
2019-05-11T18:20:57.913Z,10.67
2019-05-11T18:21:57.738Z,10.71
2019-05-11T18:22:57.745Z,10.74
2019-05-11T18:23:55.935Z,10.70
2019-05-11T18:24:57.993Z,10.71
2019-05-11T18:25:55.992Z,10.73
2019-05-11T18:26:56.020Z,10.56
2019-05-11T18:27:58.105Z,10.63
2019-05-11T18:28:58.508Z,10.63
2019-05-11T18:29:58.061Z,10.56
2019-05-11T18:30:58.069Z,10.59
2019-05-11T18:31:57.935Z,10.48
2019-05-11T18:32:59.211Z,10.55
2019-05-11T18:33:58.083Z,10.68
2019-05-11T18:34:58.812Z,10.59
2019-05-11T18:35:58.304Z,10.60
2019-05-11T18:36:57.863Z,10.68
2019-05-11T18:37:56.613Z,10.63
2019-05-11T18:38:56.367Z,10.55
2019-05-11T18:39:58.451Z,10.48
2019-05-11T18:40:58.021Z,10.47
2019-05-11T18:41:58.715Z,10.56
2019-05-11T18:42:57.848Z,10.47
2019-05-11T18:43:58.577Z,10.53